createdAt,value
2019-04-27T00:00:28.583Z,23.87
2019-04-27T00:01:28.412Z,23.95
2019-04-27T00:02:28.378Z,23.98
2019-04-27T00:03:28.309Z,23.92
2019-04-27T00:04:28.286Z,23.91
2019-04-27T00:05:32.294Z,23.88
2019-04-27T00:06:28.206Z,23.93
2019-04-27T00:07:28.140Z,23.88
2019-04-27T00:08:28.411Z,23.92
2019-04-27T00:09:28.075Z,23.88
2019-04-27T00:10:28.664Z,23.80
2019-04-27T00:11:27.968Z,23.80
2019-04-27T00:12:27.923Z,23.86
2019-04-27T00:13:27.857Z,23.77
2019-04-27T00:14:27.833Z,23.81
2019-04-27T00:15:31.190Z,23.84
2019-04-27T00:16:27.743Z,23.83
2019-04-27T00:17:44.855Z,23.76
2019-04-27T00:18:27.640Z,23.81
2019-04-27T00:19:31.704Z,23.80
2019-04-27T00:20:27.574Z,23.78
2019-04-27T00:21:27.518Z,23.86
2019-04-27T00:22:27.463Z,23.83
2019-04-27T00:23:27.406Z,23.83
2019-04-27T00:24:27.361Z,23.81
2019-04-27T00:25:27.348Z,23.76
2019-04-27T00:26:27.291Z,23.73
2019-04-27T00:27:27.257Z,23.76
2019-04-27T00:28:27.213Z,23.68
2019-04-27T00:29:27.155Z,23.78
2019-04-27T00:30:27.091Z,23.76
2019-04-27T00:31:27.079Z,23.84
2019-04-27T00:32:27.011Z,23.71
2019-04-27T00:33:26.975Z,23.68
2019-04-27T00:34:26.909Z,23.77
2019-04-27T00:35:26.876Z,23.68
2019-04-27T00:36:26.851Z,23.68
2019-04-27T00:37:26.787Z,23.77
2019-04-27T00:38:26.740Z,23.76
2019-04-27T00:39:26.695Z,23.71
2019-04-27T00:40:26.660Z,23.77
2019-04-27T00:41:26.625Z,23.74
2019-04-27T00:42:26.569Z,23.69
2019-04-27T00:43:26.503Z,23.69
2019-04-27T00:44:26.471Z,23.74
2019-04-27T00:45:26.396Z,23.73
2019-04-27T00:46:26.379Z,23.71
2019-04-27T00:47:26.358Z,23.73
2019-04-27T00:48:26.298Z,23.74
2019-04-27T00:49:26.268Z,23.78
2019-04-27T00:50:26.187Z,23.83
2019-04-27T00:51:26.143Z,23.76
2019-04-27T00:52:26.117Z,23.86
2019-04-27T00:53:26.084Z,23.78
2019-04-27T00:54:26.017Z,23.81
2019-04-27T00:55:25.981Z,23.83
2019-04-27T00:56:25.927Z,23.86
2019-04-27T00:57:25.871Z,23.74
2019-04-27T00:58:25.826Z,23.74
2019-04-27T00:59:25.792Z,23.74
2019-04-27T01:00:25.735Z,23.76
2019-04-27T01:01:25.702Z,23.69
2019-04-27T01:02:25.677Z,23.66
2019-04-27T01:03:25.600Z,23.65
2019-04-27T01:04:25.576Z,23.63
2019-04-27T01:05:25.509Z,23.62
2019-04-27T01:06:25.464Z,23.63
2019-04-27T01:07:25.441Z,23.54
2019-04-27T01:08:25.406Z,23.56
2019-04-27T01:09:25.328Z,23.51
2019-04-27T01:10:25.295Z,23.58
2019-04-27T01:11:25.272Z,23.58
2019-04-27T01:12:25.192Z,23.54
2019-04-27T01:13:25.182Z,23.54
2019-04-27T01:14:25.132Z,23.61
2019-04-27T01:15:25.089Z,23.55
2019-04-27T01:16:25.042Z,23.63
2019-04-27T01:17:24.987Z,23.59
2019-04-27T01:18:24.921Z,23.63
2019-04-27T01:19:25.058Z,23.66
2019-04-27T01:20:24.831Z,23.73
2019-04-27T01:21:24.817Z,23.69
2019-04-27T01:22:24.807Z,23.65
2019-04-27T01:23:24.695Z,23.63
2019-04-27T01:24:24.650Z,23.66
2019-04-27T01:25:24.736Z,23.62
2019-04-27T01:26:24.581Z,23.61
2019-04-27T01:27:24.535Z,23.62
2019-04-27T01:28:24.469Z,23.58
2019-04-27T01:29:24.444Z,23.62
2019-04-27T01:30:24.390Z,23.62
2019-04-27T01:31:24.433Z,23.59
2019-04-27T01:32:24.320Z,23.58
2019-04-27T01:33:24.245Z,23.55
2019-04-27T01:34:24.197Z,23.54
2019-04-27T01:35:24.152Z,23.54
2019-04-27T01:36:24.119Z,23.48
2019-04-27T01:37:24.183Z,23.48
2019-04-27T01:38:24.037Z,23.46
2019-04-27T01:39:23.991Z,23.40
2019-04-27T01:40:23.937Z,23.40
2019-04-27T01:41:23.880Z,23.34
2019-04-27T01:42:23.846Z,23.46
2019-04-27T01:43:23.910Z,23.39
2019-04-27T01:44:23.765Z,23.47
2019-04-27T01:45:23.701Z,23.48
2019-04-27T01:46:23.666Z,23.48
2019-04-27T01:47:23.620Z,23.44
2019-04-27T01:48:25.875Z,23.46
2019-04-27T01:49:23.623Z,23.39
2019-04-27T01:50:23.484Z,23.34
2019-04-27T01:51:23.448Z,23.39
2019-04-27T01:52:23.404Z,23.39
2019-04-27T01:53:23.351Z,23.36
2019-04-27T01:54:23.313Z,23.34
2019-04-27T01:55:23.346Z,23.37
2019-04-27T01:56:23.221Z,23.24
2019-04-27T01:57:23.176Z,23.25
2019-04-27T01:58:23.131Z,23.23
2019-04-27T01:59:23.076Z,23.21
2019-04-27T02:00:23.040Z,23.12
2019-04-27T02:01:23.106Z,23.15
2019-04-27T02:02:22.949Z,23.15
2019-04-27T02:03:22.901Z,23.10
2019-04-27T02:04:22.858Z,23.10
2019-04-27T02:05:22.824Z,23.13
2019-04-27T02:06:22.758Z,23.20
2019-04-27T02:07:22.813Z,23.18
2019-04-27T02:08:22.656Z,23.25
2019-04-27T02:09:22.610Z,23.25
2019-04-27T02:10:22.585Z,23.34
2019-04-27T02:11:22.531Z,23.37
2019-04-27T02:12:22.495Z,23.31
2019-04-27T02:13:22.561Z,23.40
2019-04-27T02:14:22.415Z,23.36
2019-04-27T02:15:22.337Z,23.39
2019-04-27T02:16:22.292Z,23.43
2019-04-27T02:17:22.267Z,23.36
2019-04-27T02:18:34.701Z,23.37
2019-04-27T02:19:22.279Z,23.31
2019-04-27T02:20:22.133Z,23.32
2019-04-27T02:21:22.066Z,23.23
2019-04-27T02:22:22.033Z,23.20
2019-04-27T02:23:21.989Z,23.08
2019-04-27T02:24:21.930Z,23.10
2019-04-27T02:25:22.004Z,23.12
2019-04-27T02:26:21.862Z,23.15
2019-04-27T02:27:21.813Z,23.17
2019-04-27T02:28:21.768Z,23.09
2019-04-27T02:29:21.701Z,23.12
2019-04-27T02:30:21.657Z,23.10
2019-04-27T02:31:21.743Z,23.10
2019-04-27T02:32:21.578Z,23.00
2019-04-27T02:33:21.526Z,22.91
2019-04-27T02:34:21.475Z,22.98
2019-04-27T02:35:21.441Z,22.90
2019-04-27T02:36:21.412Z,22.85
2019-04-27T02:37:21.443Z,22.88
2019-04-27T02:38:21.313Z,22.88
2019-04-27T02:39:21.724Z,22.84
2019-04-27T02:40:21.222Z,22.90
2019-04-27T02:41:21.187Z,22.91
2019-04-27T02:42:21.122Z,22.87
2019-04-27T02:43:21.185Z,22.94
2019-04-27T02:44:21.019Z,22.96
2019-04-27T02:45:22.215Z,22.99
2019-04-27T02:46:20.927Z,23.00
2019-04-27T02:47:21.100Z,22.94
2019-04-27T02:48:20.849Z,23.00
2019-04-27T02:49:20.911Z,22.94
2019-04-27T02:50:20.757Z,22.99
2019-04-27T02:51:20.721Z,22.99
2019-04-27T02:52:20.654Z,23.08
2019-04-27T02:53:20.628Z,23.05
2019-04-27T02:54:20.651Z,23.12
2019-04-27T02:55:20.633Z,23.08
2019-04-27T02:56:20.491Z,23.05
2019-04-27T02:57:20.437Z,23.13
2019-04-27T02:58:21.406Z,23.18
2019-04-27T02:59:20.367Z,23.15
2019-04-27T03:00:20.651Z,23.21
2019-04-27T03:01:20.376Z,23.17
2019-04-27T03:02:20.235Z,23.27
2019-04-27T03:03:20.497Z,23.31
2019-04-27T03:04:20.496Z,23.28
2019-04-27T03:05:20.075Z,23.25
2019-04-27T03:06:20.134Z,23.27
2019-04-27T03:07:20.398Z,23.21
2019-04-27T03:08:20.237Z,23.28
2019-04-27T03:09:20.691Z,23.23
2019-04-27T03:10:20.038Z,23.27
2019-04-27T03:11:23.005Z,23.24
2019-04-27T03:12:19.763Z,23.24
2019-04-27T03:13:20.165Z,23.25
2019-04-27T03:14:29.657Z,23.21
2019-04-27T03:15:22.860Z,23.15
2019-04-27T03:16:20.461Z,23.09
2019-04-27T03:17:22.570Z,23.10
2019-04-27T03:18:19.554Z,23.17
2019-04-27T03:19:21.867Z,23.12
2019-04-27T03:20:20.138Z,23.17
2019-04-27T03:21:20.248Z,23.18
2019-04-27T03:22:19.577Z,23.18
2019-04-27T03:23:20.051Z,23.18
2019-04-27T03:24:19.983Z,23.20
2019-04-27T03:25:20.256Z,23.25
2019-04-27T03:26:19.657Z,23.25
2019-04-27T03:27:20.150Z,23.23
2019-04-27T03:28:20.066Z,23.21
2019-04-27T03:29:20.188Z,23.15
2019-04-27T03:30:22.662Z,23.13
2019-04-27T03:31:21.510Z,23.13
2019-04-27T03:32:22.684Z,23.17
2019-04-27T03:33:22.297Z,23.12
2019-04-27T03:34:22.304Z,23.09
2019-04-27T03:35:22.795Z,23.15
2019-04-27T03:36:21.411Z,23.10
2019-04-27T03:37:20.308Z,23.09
2019-04-27T03:38:19.759Z,23.18
2019-04-27T03:39:19.974Z,23.06
2019-04-27T03:40:20.380Z,23.05
2019-04-27T03:41:19.259Z,23.03
2019-04-27T03:42:20.606Z,23.10
2019-04-27T03:43:19.934Z,22.99
2019-04-27T03:44:19.187Z,23.08
2019-04-27T03:45:19.981Z,23.02
2019-04-27T03:46:20.484Z,23.00
2019-04-27T03:47:19.731Z,22.99
2019-04-27T03:48:20.430Z,23.00
2019-04-27T03:49:29.383Z,22.93
2019-04-27T03:50:20.358Z,22.96
2019-04-27T03:51:20.032Z,22.96
2019-04-27T03:52:19.749Z,22.99
2019-04-27T03:53:20.535Z,23.03
2019-04-27T03:54:19.347Z,22.87
2019-04-27T03:55:19.824Z,22.98
2019-04-27T03:56:19.890Z,22.99
2019-04-27T03:57:19.903Z,23.00
2019-04-27T03:58:21.391Z,23.00
2019-04-27T03:59:19.581Z,22.83
2019-04-27T04:00:19.908Z,22.90
2019-04-27T04:01:20.112Z,22.85
2019-04-27T04:02:19.757Z,22.93
2019-04-27T04:03:17.458Z,22.84
2019-04-27T04:04:19.486Z,22.87
2019-04-27T04:05:19.667Z,22.87
2019-04-27T04:06:19.261Z,22.84
2019-04-27T04:07:19.476Z,22.83
2019-04-27T04:08:19.193Z,22.85
2019-04-27T04:09:17.174Z,22.87
2019-04-27T04:10:19.486Z,22.76
2019-04-27T04:11:17.083Z,22.73
2019-04-27T04:12:19.337Z,22.84
2019-04-27T04:13:16.995Z,22.84
2019-04-27T04:14:16.959Z,22.78
2019-04-27T04:15:16.901Z,22.75
2019-04-27T04:16:16.858Z,22.75
2019-04-27T04:17:16.816Z,22.80
2019-04-27T04:18:16.747Z,22.78
2019-04-27T04:19:16.710Z,22.78
2019-04-27T04:20:16.691Z,22.80
2019-04-27T04:21:16.627Z,22.76
2019-04-27T04:22:16.582Z,22.76
2019-04-27T04:23:16.516Z,22.73
2019-04-27T04:24:16.471Z,22.75
2019-04-27T04:25:16.436Z,22.75
2019-04-27T04:26:16.392Z,22.78
2019-04-27T04:27:16.359Z,22.65
2019-04-27T04:28:16.310Z,22.72
2019-04-27T04:29:16.243Z,22.72
2019-04-27T04:30:16.238Z,22.69
2019-04-27T04:31:16.163Z,22.69
2019-04-27T04:32:16.137Z,22.68
2019-04-27T04:33:16.081Z,22.65
2019-04-27T04:34:16.035Z,22.62
2019-04-27T04:35:16.000Z,22.63
2019-04-27T04:36:15.925Z,22.66
2019-04-27T04:37:15.903Z,22.63
2019-04-27T04:38:15.843Z,22.54
2019-04-27T04:39:15.808Z,22.63
2019-04-27T04:40:15.742Z,22.55
2019-04-27T04:41:15.716Z,22.66
2019-04-27T04:42:15.688Z,22.66
2019-04-27T04:43:15.627Z,22.63
2019-04-27T04:44:15.582Z,22.62
2019-04-27T04:45:15.525Z,22.63
2019-04-27T04:46:15.499Z,22.68
2019-04-27T04:47:15.424Z,22.57
2019-04-27T04:48:15.388Z,22.59
2019-04-27T04:49:15.341Z,22.65
2019-04-27T04:50:15.603Z,22.65
2019-04-27T04:51:15.250Z,22.50
2019-04-27T04:52:15.205Z,22.55
2019-04-27T04:53:15.191Z,22.54
2019-04-27T04:54:15.135Z,22.60
2019-04-27T04:55:15.088Z,22.54
2019-04-27T04:56:15.011Z,22.55
2019-04-27T04:57:14.986Z,22.63
2019-04-27T04:58:14.920Z,22.66
2019-04-27T04:59:14.885Z,22.62
2019-04-27T05:00:14.830Z,22.62
2019-04-27T05:01:14.794Z,22.70
2019-04-27T05:02:14.750Z,22.66
2019-04-27T05:03:14.702Z,22.70
2019-04-27T05:04:14.667Z,22.73
2019-04-27T05:05:14.605Z,22.73
2019-04-27T05:06:14.556Z,22.76
2019-04-27T05:07:14.520Z,22.72
2019-04-27T05:08:14.495Z,22.59
2019-04-27T05:09:14.429Z,22.65
2019-04-27T05:10:14.383Z,22.62
2019-04-27T05:11:14.326Z,22.70
2019-04-27T05:12:14.301Z,22.66
2019-04-27T05:13:14.246Z,22.76
2019-04-27T05:14:14.200Z,22.70
2019-04-27T05:15:14.155Z,22.68
2019-04-27T05:16:14.130Z,22.62
2019-04-27T05:17:14.079Z,22.70
2019-04-27T05:18:14.039Z,22.65
2019-04-27T05:19:13.962Z,22.65
2019-04-27T05:20:22.557Z,22.62
2019-04-27T05:21:13.892Z,22.59
2019-04-27T05:22:13.893Z,22.69
2019-04-27T05:23:13.811Z,22.70
2019-04-27T05:24:13.744Z,22.75
2019-04-27T05:25:13.909Z,22.66
2019-04-27T05:26:13.644Z,22.66
2019-04-27T05:27:13.628Z,22.65
2019-04-27T05:28:13.562Z,22.69
2019-04-27T05:29:13.504Z,22.62
2019-04-27T05:30:14.701Z,22.62
2019-04-27T05:31:13.428Z,22.55
2019-04-27T05:32:13.379Z,22.53
2019-04-27T05:33:13.360Z,22.53
2019-04-27T05:34:13.288Z,22.54
2019-04-27T05:35:13.249Z,22.45
2019-04-27T05:36:13.466Z,22.38
2019-04-27T05:37:13.160Z,22.41
2019-04-27T05:38:13.558Z,22.43
2019-04-27T05:39:13.390Z,22.43
2019-04-27T05:40:13.015Z,22.38
2019-04-27T05:41:12.989Z,22.35
2019-04-27T05:42:17.009Z,22.28
2019-04-27T05:43:12.886Z,22.30
2019-04-27T05:44:13.097Z,22.32
2019-04-27T05:45:15.310Z,22.35
2019-04-27T05:46:12.729Z,22.35
2019-04-27T05:47:13.247Z,22.43
2019-04-27T05:48:12.671Z,22.36
2019-04-27T05:49:12.603Z,22.35
2019-04-27T05:50:13.503Z,22.28
2019-04-27T05:51:12.520Z,22.32
2019-04-27T05:52:14.672Z,22.41
2019-04-27T05:53:12.429Z,22.38
2019-04-27T05:54:12.364Z,22.33
2019-04-27T05:55:12.338Z,22.41
2019-04-27T05:56:12.303Z,22.38
2019-04-27T05:57:12.237Z,22.47
2019-04-27T05:58:12.212Z,22.54
2019-04-27T05:59:14.529Z,22.47
2019-04-27T06:00:12.102Z,22.53
2019-04-27T06:01:12.081Z,22.50
2019-04-27T06:02:12.034Z,22.50
2019-04-27T06:03:11.985Z,22.51
2019-04-27T06:04:11.917Z,22.47
2019-04-27T06:05:11.859Z,22.55
2019-04-27T06:06:11.834Z,22.50
2019-04-27T06:07:11.793Z,22.44
2019-04-27T06:08:11.722Z,22.39
2019-04-27T06:09:11.679Z,22.48
2019-04-27T06:10:11.631Z,22.47
2019-04-27T06:11:11.597Z,22.43
2019-04-27T06:12:11.561Z,22.43
2019-04-27T06:13:11.538Z,22.36
2019-04-27T06:14:11.461Z,22.35
2019-04-27T06:15:11.402Z,22.28
2019-04-27T06:16:11.368Z,22.30
2019-04-27T06:17:11.343Z,22.33
2019-04-27T06:18:11.269Z,22.38
2019-04-27T06:19:11.231Z,22.38
2019-04-27T06:20:11.195Z,22.43
2019-04-27T06:21:11.140Z,22.39
2019-04-27T06:22:11.115Z,22.41
2019-04-27T06:23:11.036Z,22.36
2019-04-27T06:24:11.003Z,22.36
2019-04-27T06:25:11.820Z,22.38
2019-04-27T06:26:11.828Z,22.41
2019-04-27T06:27:10.854Z,22.36
2019-04-27T06:28:10.840Z,22.38
2019-04-27T06:29:10.777Z,22.18
2019-04-27T06:30:10.737Z,22.29
2019-04-27T06:31:10.703Z,22.23
2019-04-27T06:32:10.915Z,22.20
2019-04-27T06:33:10.614Z,22.25
2019-04-27T06:34:10.554Z,22.28
2019-04-27T06:35:12.387Z,22.22
2019-04-27T06:36:10.463Z,22.25
2019-04-27T06:37:10.429Z,22.28
2019-04-27T06:38:11.635Z,22.20
2019-04-27T06:39:10.337Z,22.33
2019-04-27T06:40:10.280Z,22.33
2019-04-27T06:41:10.292Z,22.35
2019-04-27T06:42:16.657Z,22.48
2019-04-27T06:43:10.134Z,22.39
2019-04-27T06:44:11.370Z,22.43
2019-04-27T06:45:10.165Z,22.38
2019-04-27T06:46:09.985Z,22.39
2019-04-27T06:47:09.951Z,22.32
2019-04-27T06:48:09.914Z,22.29
2019-04-27T06:49:11.134Z,22.33
2019-04-27T06:50:09.834Z,22.33
2019-04-27T06:51:09.828Z,22.29
2019-04-27T06:52:09.710Z,22.28
2019-04-27T06:53:09.685Z,22.20
2019-04-27T06:54:09.630Z,22.20
2019-04-27T06:55:09.605Z,22.08
2019-04-27T06:56:09.559Z,22.25
2019-04-27T06:57:09.502Z,22.20
2019-04-27T06:58:09.467Z,22.08
2019-04-27T06:59:09.390Z,22.14
2019-04-27T07:00:09.364Z,22.11
2019-04-27T07:01:10.969Z,22.17
2019-04-27T07:02:09.275Z,22.15
2019-04-27T07:03:10.671Z,22.11
2019-04-27T07:04:10.912Z,22.07
2019-04-27T07:05:09.135Z,21.92
2019-04-27T07:06:09.080Z,21.88
2019-04-27T07:07:09.740Z,21.80
2019-04-27T07:08:09.082Z,21.76
2019-04-27T07:09:09.586Z,21.88
2019-04-27T07:10:08.918Z,21.80
2019-04-27T07:11:11.407Z,21.91
2019-04-27T07:12:09.016Z,21.92
2019-04-27T07:13:09.605Z,21.88
2019-04-27T07:14:11.233Z,21.99
2019-04-27T07:15:08.941Z,21.92
2019-04-27T07:16:09.642Z,21.99
2019-04-27T07:17:09.010Z,21.99
2019-04-27T07:18:09.693Z,22.02
2019-04-27T07:19:09.426Z,21.99
2019-04-27T07:20:09.048Z,21.99
2019-04-27T07:21:16.959Z,21.95
2019-04-27T07:22:09.095Z,21.98
2019-04-27T07:23:09.496Z,21.99
2019-04-27T07:24:08.990Z,22.00
2019-04-27T07:25:09.071Z,22.04
2019-04-27T07:26:09.381Z,22.00
2019-04-27T07:27:09.355Z,22.07
2019-04-27T07:28:09.167Z,22.13
2019-04-27T07:29:09.551Z,22.10
2019-04-27T07:30:11.873Z,22.11
2019-04-27T07:31:09.563Z,22.17
2019-04-27T07:32:09.279Z,22.20
2019-04-27T07:33:08.762Z,22.15
2019-04-27T07:34:09.359Z,22.11
2019-04-27T07:35:09.623Z,22.18
2019-04-27T07:36:08.979Z,22.14
2019-04-27T07:37:09.345Z,22.02
2019-04-27T07:38:07.612Z,21.99
2019-04-27T07:39:10.972Z,21.96
2019-04-27T07:40:09.092Z,21.95
2019-04-27T07:41:07.495Z,21.95
2019-04-27T07:42:08.588Z,21.98
2019-04-27T07:43:09.043Z,22.04
2019-04-27T07:44:08.414Z,21.95
2019-04-27T07:45:07.316Z,21.96
2019-04-27T07:46:08.830Z,22.00
2019-04-27T07:47:07.189Z,21.98
2019-04-27T07:48:08.967Z,21.93
2019-04-27T07:49:07.107Z,21.95
2019-04-27T07:50:07.050Z,21.85
2019-04-27T07:51:07.021Z,21.96
2019-04-27T07:52:08.641Z,21.89
2019-04-27T07:53:08.520Z,21.95
2019-04-27T07:54:08.772Z,21.89
2019-04-27T07:55:08.597Z,21.83
2019-04-27T07:56:06.807Z,21.88
2019-04-27T07:57:06.729Z,21.91
2019-04-27T07:58:08.777Z,21.88
2019-04-27T07:59:06.637Z,21.79
2019-04-27T08:00:06.592Z,21.79
2019-04-27T08:01:06.566Z,21.82
2019-04-27T08:02:06.511Z,21.85
2019-04-27T08:03:06.475Z,21.77
2019-04-27T08:04:06.409Z,21.80
2019-04-27T08:05:06.373Z,21.80
2019-04-27T08:06:06.328Z,21.88
2019-04-27T08:07:06.282Z,21.88
2019-04-27T08:08:06.236Z,21.88
2019-04-27T08:09:06.193Z,21.89
2019-04-27T08:10:06.144Z,21.92
2019-04-27T08:11:06.087Z,21.85
2019-04-27T08:12:06.061Z,21.91
2019-04-27T08:13:06.017Z,21.95
2019-04-27T08:14:05.984Z,21.89
2019-04-27T08:15:05.935Z,21.92
2019-04-27T08:16:05.889Z,21.95
2019-04-27T08:17:05.837Z,21.85
2019-04-27T08:18:05.778Z,21.91
2019-04-27T08:19:05.719Z,21.93
2019-04-27T08:20:05.887Z,21.91
2019-04-27T08:21:05.648Z,21.93
2019-04-27T08:22:05.582Z,21.98
2019-04-27T08:23:05.568Z,22.04
2019-04-27T08:24:05.522Z,22.02
2019-04-27T08:25:05.464Z,22.10
2019-04-27T08:26:05.419Z,21.99
2019-04-27T08:27:05.352Z,21.89
2019-04-27T08:28:05.349Z,21.80
2019-04-27T08:29:05.293Z,21.80
2019-04-27T08:30:05.247Z,21.76
2019-04-27T08:31:05.204Z,21.66
2019-04-27T08:32:05.134Z,21.72
2019-04-27T08:33:05.076Z,21.69
2019-04-27T08:34:05.051Z,21.64
2019-04-27T08:35:04.989Z,21.70
2019-04-27T08:36:04.950Z,21.75
2019-04-27T08:37:04.927Z,21.79
2019-04-27T08:38:04.879Z,21.88
2019-04-27T08:39:04.801Z,21.85
2019-04-27T08:40:04.775Z,21.93
2019-04-27T08:41:04.720Z,21.85
2019-04-27T08:42:04.685Z,21.92
2019-04-27T08:43:04.638Z,21.85
2019-04-27T08:44:04.603Z,21.88
2019-04-27T08:45:04.529Z,21.93
2019-04-27T08:46:04.479Z,21.79
2019-04-27T08:47:04.445Z,21.75
2019-04-27T08:48:04.399Z,21.75
2019-04-27T08:49:04.373Z,21.64
2019-04-27T08:50:04.296Z,21.67
2019-04-27T08:51:04.282Z,21.75
2019-04-27T08:52:04.239Z,21.69
2019-04-27T08:53:04.157Z,21.67
2019-04-27T08:54:04.132Z,21.76
2019-04-27T08:55:04.086Z,21.85
2019-04-27T08:56:04.040Z,21.76
2019-04-27T08:57:03.985Z,21.77
2019-04-27T08:58:03.959Z,21.89
2019-04-27T08:59:03.902Z,21.88
2019-04-27T09:00:03.839Z,21.88
2019-04-27T09:01:03.790Z,21.83
2019-04-27T09:02:03.776Z,21.83
2019-04-27T09:03:03.718Z,21.98
2019-04-27T09:04:03.666Z,21.83
2019-04-27T09:05:03.617Z,21.83
2019-04-27T09:06:03.567Z,21.91
2019-04-27T09:07:03.625Z,21.79
2019-04-27T09:08:03.501Z,21.93
2019-04-27T09:09:03.422Z,21.77
2019-04-27T09:10:03.389Z,21.83
2019-04-27T09:11:03.351Z,21.80
2019-04-27T09:12:03.298Z,21.88
2019-04-27T09:13:03.271Z,21.80
2019-04-27T09:14:03.225Z,21.88
2019-04-27T09:15:03.147Z,21.91
2019-04-27T09:16:03.121Z,21.82
2019-04-27T09:17:03.153Z,21.77
2019-04-27T09:18:03.033Z,21.72
2019-04-27T09:19:02.975Z,21.88
2019-04-27T09:20:02.916Z,21.82
2019-04-27T09:21:02.877Z,21.79
2019-04-27T09:22:12.406Z,21.75
2019-04-27T09:23:02.799Z,21.75
2019-04-27T09:24:02.767Z,21.77
2019-04-27T09:25:02.688Z,21.75
2019-04-27T09:26:02.654Z,21.79
2019-04-27T09:27:02.627Z,21.77
2019-04-27T09:28:02.560Z,21.80
2019-04-27T09:29:02.514Z,21.88
2019-04-27T09:30:02.478Z,21.80
2019-04-27T09:31:02.410Z,21.91
2019-04-27T09:32:02.385Z,21.85
2019-04-27T09:33:02.340Z,21.93
2019-04-27T09:34:02.284Z,21.80
2019-04-27T09:35:02.227Z,21.82
2019-04-27T09:36:02.201Z,21.88
2019-04-27T09:37:02.155Z,21.77
2019-04-27T09:38:02.101Z,21.72
2019-04-27T09:39:02.078Z,21.76
2019-04-27T09:40:02.029Z,21.73
2019-04-27T09:41:01.964Z,21.76
2019-04-27T09:42:01.916Z,21.76
2019-04-27T09:43:01.859Z,21.88
2019-04-27T09:44:02.545Z,21.79
2019-04-27T09:45:01.768Z,21.89
2019-04-27T09:46:01.734Z,21.80
2019-04-27T09:47:01.688Z,21.85
2019-04-27T09:48:01.635Z,21.88
2019-04-27T09:49:01.604Z,21.89
2019-04-27T09:50:01.551Z,22.02
2019-04-27T09:51:01.523Z,22.04
2019-04-27T09:52:01.479Z,22.10
2019-04-27T09:53:01.411Z,22.10
2019-04-27T09:54:01.377Z,22.28
2019-04-27T09:55:01.320Z,22.22
2019-04-27T09:56:01.283Z,22.22
2019-04-27T09:57:01.257Z,22.22
2019-04-27T09:58:01.170Z,22.33
2019-04-27T09:59:01.124Z,22.26
2019-04-27T10:00:01.087Z,22.25
2019-04-27T10:01:01.044Z,22.32
2019-04-27T10:02:01.007Z,22.38
2019-04-27T10:03:00.962Z,22.43
2019-04-27T10:04:00.907Z,22.48
2019-04-27T10:05:00.850Z,22.47
2019-04-27T10:06:00.835Z,22.53
2019-04-27T10:07:00.758Z,22.69
2019-04-27T10:08:00.726Z,22.87
2019-04-27T10:09:00.678Z,23.00
2019-04-27T10:10:00.653Z,23.05
2019-04-27T10:11:00.596Z,23.17
2019-04-27T10:12:00.552Z,23.36
2019-04-27T10:13:00.504Z,23.51
2019-04-27T10:14:00.452Z,23.78
2019-04-27T10:15:00.404Z,23.83
2019-04-27T10:16:00.368Z,23.98
2019-04-27T10:17:00.333Z,24.20
2019-04-27T10:18:00.290Z,24.42
2019-04-27T10:19:00.224Z,24.40
2019-04-27T10:20:00.165Z,24.58
2019-04-27T10:21:02.239Z,24.61
2019-04-27T10:22:00.089Z,24.51
2019-04-27T10:23:00.029Z,24.40
2019-04-27T10:23:59.985Z,24.32
2019-04-27T10:24:59.939Z,24.18
2019-04-27T10:25:59.893Z,24.11
2019-04-27T10:26:59.810Z,24.13
2019-04-27T10:27:59.814Z,24.74
2019-04-27T10:28:59.758Z,25.08
2019-04-27T10:29:59.724Z,25.46
2019-04-27T10:30:59.679Z,25.87
2019-04-27T10:31:59.635Z,26.55
2019-04-27T10:32:59.601Z,26.99
2019-04-27T10:33:59.534Z,27.58
2019-04-27T10:34:59.489Z,28.19
2019-04-27T10:35:59.450Z,28.48
2019-04-27T10:36:59.425Z,28.59
2019-04-27T10:37:59.355Z,28.66
2019-04-27T10:38:59.316Z,28.98
2019-04-27T10:39:59.279Z,29.10
2019-04-27T10:40:59.237Z,29.68
2019-04-27T10:41:59.200Z,30.03
2019-04-27T10:42:59.148Z,30.25
2019-04-27T10:43:59.116Z,30.23
2019-04-27T10:44:59.070Z,30.16
2019-04-27T10:45:59.027Z,30.10
2019-04-27T10:46:58.983Z,29.78
2019-04-27T10:47:58.952Z,29.39
2019-04-27T10:48:58.876Z,28.91
2019-04-27T10:49:58.845Z,28.78
2019-04-27T10:50:58.811Z,28.67
2019-04-27T10:51:58.768Z,28.54
2019-04-27T10:52:59.293Z,28.10
2019-04-27T10:53:58.679Z,27.63
2019-04-27T10:54:58.702Z,26.96
2019-04-27T10:55:58.607Z,26.62
2019-04-27T10:56:58.614Z,26.58
2019-04-27T10:57:58.499Z,26.96
2019-04-27T10:58:58.479Z,27.51
2019-04-27T10:59:58.423Z,27.98
2019-04-27T11:00:58.632Z,28.56
2019-04-27T11:01:58.403Z,28.91
2019-04-27T11:02:58.475Z,28.91
2019-04-27T11:03:58.244Z,28.72
2019-04-27T11:04:58.207Z,28.82
2019-04-27T11:05:58.156Z,29.08
2019-04-27T11:06:58.120Z,29.26
2019-04-27T11:07:58.077Z,29.65
2019-04-27T11:08:58.034Z,29.97
2019-04-27T11:09:57.994Z,30.10
2019-04-27T11:10:57.948Z,29.76
2019-04-27T11:11:57.917Z,29.49
2019-04-27T11:12:57.862Z,28.93
2019-04-27T11:14:00.829Z,28.66
2019-04-27T11:14:57.777Z,28.37
2019-04-27T11:15:57.747Z,28.25
2019-04-27T11:16:57.684Z,28.14
2019-04-27T11:17:57.662Z,28.10
2019-04-27T11:18:58.685Z,28.01
2019-04-27T11:19:57.577Z,27.77
2019-04-27T11:20:57.537Z,27.49
2019-04-27T11:21:57.471Z,27.35
2019-04-27T11:23:07.005Z,26.80
2019-04-27T11:23:57.395Z,26.84
2019-04-27T11:24:57.336Z,26.84
2019-04-27T11:25:57.324Z,26.84
2019-04-27T11:26:57.258Z,26.81
2019-04-27T11:27:57.865Z,26.75
2019-04-27T11:28:57.172Z,26.52
2019-04-27T11:29:57.158Z,26.51
2019-04-27T11:30:57.107Z,26.53
2019-04-27T11:31:57.037Z,26.29
2019-04-27T11:32:59.213Z,26.36
2019-04-27T11:33:56.967Z,26.26
2019-04-27T11:34:56.914Z,26.28
2019-04-27T11:35:56.870Z,26.28
2019-04-27T11:36:56.828Z,26.19
2019-04-27T11:37:56.796Z,26.33
2019-04-27T11:38:56.729Z,26.16
2019-04-27T11:39:56.687Z,26.34
2019-04-27T11:40:56.817Z,26.33
2019-04-27T11:41:56.598Z,26.29
2019-04-27T11:42:57.345Z,26.40
2019-04-27T11:43:56.690Z,26.44
2019-04-27T11:44:58.275Z,26.40
2019-04-27T11:45:56.436Z,26.40
2019-04-27T11:46:56.381Z,26.55
2019-04-27T11:47:57.122Z,26.65
2019-04-27T11:48:58.297Z,26.84
2019-04-27T11:49:57.949Z,26.88
2019-04-27T11:50:56.218Z,26.84
2019-04-27T11:51:56.693Z,26.68
2019-04-27T11:52:56.678Z,26.65
2019-04-27T11:53:56.075Z,26.45
2019-04-27T11:54:56.043Z,26.31
2019-04-27T11:55:55.999Z,26.21
2019-04-27T11:56:56.104Z,26.07
2019-04-27T11:57:56.069Z,26.23
2019-04-27T11:58:56.106Z,26.36
2019-04-27T11:59:56.305Z,26.36
2019-04-27T12:00:55.771Z,26.48
2019-04-27T12:01:55.986Z,26.45
2019-04-27T12:02:56.728Z,26.52
2019-04-27T12:03:55.755Z,26.59
2019-04-27T12:04:55.594Z,26.65
2019-04-27T12:05:59.988Z,26.55
2019-04-27T12:06:56.515Z,26.48
2019-04-27T12:07:56.074Z,26.43
2019-04-27T12:08:55.431Z,26.63
2019-04-27T12:09:55.624Z,26.81
2019-04-27T12:10:55.809Z,26.90
2019-04-27T12:11:55.905Z,26.83
2019-04-27T12:12:56.288Z,26.88
2019-04-27T12:13:56.190Z,26.93
2019-04-27T12:14:56.064Z,27.12
2019-04-27T12:15:55.114Z,27.22
2019-04-27T12:16:56.192Z,27.29
2019-04-27T12:17:59.119Z,27.37
2019-04-27T12:18:56.369Z,27.30
2019-04-27T12:19:54.951Z,27.45
2019-04-27T12:20:55.799Z,27.42
2019-04-27T12:21:56.513Z,27.37
2019-04-27T12:22:54.852Z,27.27
2019-04-27T12:23:54.769Z,27.42
2019-04-27T12:24:56.168Z,27.55
2019-04-27T12:25:56.264Z,27.65
2019-04-27T12:26:55.801Z,27.58
2019-04-27T12:27:54.591Z,27.37
2019-04-27T12:28:56.086Z,27.33
2019-04-27T12:29:55.814Z,27.44
2019-04-27T12:30:54.490Z,27.37
2019-04-27T12:31:56.094Z,27.36
2019-04-27T12:32:55.809Z,27.36
2019-04-27T12:33:55.897Z,27.54
2019-04-27T12:34:54.288Z,27.49
2019-04-27T12:35:54.245Z,27.49
2019-04-27T12:36:54.234Z,27.47
2019-04-27T12:37:55.817Z,27.40
2019-04-27T12:38:54.126Z,27.32
2019-04-27T12:39:55.460Z,27.33
2019-04-27T12:40:54.040Z,27.39
2019-04-27T12:41:55.955Z,27.47
2019-04-27T12:42:53.952Z,27.67
2019-04-27T12:43:53.918Z,27.78
2019-04-27T12:44:53.875Z,27.73
2019-04-27T12:45:55.798Z,27.77
2019-04-27T12:46:53.779Z,27.63
2019-04-27T12:47:53.756Z,27.54
2019-04-27T12:48:55.317Z,27.55
2019-04-27T12:49:53.659Z,27.60
2019-04-27T12:50:53.615Z,27.49
2019-04-27T12:51:53.550Z,27.40